createdAt,value
2019-05-19T00:02:20.694Z,91.10
2019-05-19T00:04:51.028Z,91.20
2019-05-19T00:07:21.332Z,91.30
2019-05-19T00:09:51.905Z,91.10
2019-05-19T00:12:22.227Z,91.30
2019-05-19T00:14:52.569Z,91.60
2019-05-19T00:17:22.917Z,91.70
2019-05-19T00:19:53.496Z,91.80
2019-05-19T00:22:23.840Z,91.70
2019-05-19T00:24:54.177Z,91.90
2019-05-19T00:27:24.537Z,91.90
2019-05-19T00:29:54.899Z,92.30
2019-05-19T00:32:25.257Z,92.40
2019-05-19T00:34:55.682Z,92.50
2019-05-19T00:37:26.022Z,92.70
2019-05-19T00:39:56.350Z,92.90
2019-05-19T00:42:26.737Z,93.00
2019-05-19T00:44:57.407Z,93.00
2019-05-19T00:47:27.762Z,93.10
2019-05-19T00:49:58.948Z,93.10
2019-05-19T00:52:30.360Z,93.30
2019-05-19T00:55:00.757Z,93.50
2019-05-19T00:57:31.953Z,93.50
2019-05-19T01:00:02.722Z,93.50
2019-05-19T01:02:34.547Z,93.70
2019-05-19T01:05:05.410Z,93.90
2019-05-19T01:07:35.822Z,94.10
2019-05-19T01:10:06.836Z,94.10
2019-05-19T01:12:37.373Z,94.30
2019-05-19T01:15:08.419Z,94.70
2019-05-19T01:17:38.823Z,94.50
2019-05-19T01:20:09.574Z,94.50
2019-05-19T01:22:41.100Z,94.40
2019-05-19T01:25:11.841Z,94.40
2019-05-19T01:27:42.169Z,94.50
2019-05-19T01:30:13.528Z,94.70
2019-05-19T01:32:43.941Z,94.70
2019-05-19T01:35:14.518Z,94.80
2019-05-19T01:37:44.890Z,94.80
2019-05-19T01:40:15.365Z,94.70
2019-05-19T01:42:45.666Z,94.80
2019-05-19T01:45:16.328Z,95.00
2019-05-19T01:47:47.999Z,95.00
2019-05-19T01:50:18.731Z,95.00
2019-05-19T01:52:49.256Z,95.10
2019-05-19T01:55:19.574Z,95.40
2019-05-19T01:57:49.922Z,95.50
2019-05-19T02:00:20.925Z,95.70
2019-05-19T02:02:51.407Z,96.10
2019-05-19T02:05:21.801Z,96.40
2019-05-19T02:07:52.123Z,96.40
2019-05-19T02:10:22.492Z,96.60
2019-05-19T02:12:52.774Z,96.90
2019-05-19T02:15:23.162Z,97.00
2019-05-19T02:17:53.451Z,97.20
2019-05-19T02:20:32.600Z,97.30
2019-05-19T02:22:55.729Z,97.50
2019-05-19T02:25:26.139Z,97.70
2019-05-19T02:27:56.493Z,97.80
2019-05-19T02:30:26.818Z,97.90
2019-05-19T02:32:57.140Z,97.90
2019-05-19T02:35:27.451Z,97.90
2019-05-19T02:37:58.461Z,98.00
2019-05-19T02:40:29.869Z,98.00
2019-05-19T02:43:01.247Z,98.20
2019-05-19T02:45:34.162Z,98.30
2019-05-19T02:48:05.726Z,98.50
2019-05-19T02:50:51.621Z,98.60
2019-05-19T02:53:09.868Z,98.60
2019-05-19T02:55:40.851Z,98.50
2019-05-19T02:58:13.400Z,98.50
2019-05-19T03:00:43.939Z,98.60
2019-05-19T03:03:15.302Z,98.50
2019-05-19T03:05:45.636Z,98.50
2019-05-19T03:08:15.956Z,98.60
2019-05-19T03:10:46.527Z,98.50
2019-05-19T03:13:16.841Z,98.50
2019-05-19T03:15:47.256Z,98.50
2019-05-19T03:18:17.689Z,98.70
2019-05-19T03:20:48.071Z,98.70
2019-05-19T03:23:18.404Z,98.70
2019-05-19T03:25:48.701Z,98.60
2019-05-19T03:28:19.113Z,98.60
2019-05-19T03:30:59.260Z,98.50
2019-05-19T03:33:31.296Z,98.60
2019-05-19T03:36:01.758Z,98.70
2019-05-19T03:38:32.064Z,99.00
2019-05-19T03:41:03.508Z,99.00
2019-05-19T03:43:33.933Z,99.10
2019-05-19T03:46:04.253Z,99.10
2019-05-19T03:48:35.761Z,99.40
2019-05-19T03:51:06.094Z,99.50
2019-05-19T03:53:36.437Z,99.40
2019-05-19T03:56:06.994Z,99.50
2019-05-19T03:58:37.467Z,99.50
2019-05-19T04:01:07.774Z,99.60
2019-05-19T04:03:39.127Z,99.60
2019-05-19T04:06:09.500Z,99.60
2019-05-19T04:08:40.259Z,99.70
2019-05-19T04:11:10.594Z,99.90
2019-05-19T04:13:41.091Z,99.90
2019-05-19T04:16:11.534Z,99.90
2019-05-19T04:18:41.899Z,99.90
2019-05-19T04:21:12.269Z,99.90
2019-05-19T04:23:42.609Z,99.90
2019-05-19T04:26:12.955Z,99.90
2019-05-19T04:28:43.388Z,99.90
2019-05-19T04:31:13.771Z,99.90
2019-05-19T04:33:44.107Z,99.90
2019-05-19T04:36:14.470Z,99.90
2019-05-19T04:38:44.897Z,99.90
2019-05-19T04:41:15.214Z,99.90
2019-05-19T04:43:45.626Z,99.90
2019-05-19T04:46:16.042Z,99.90
2019-05-19T04:48:46.405Z,99.90
2019-05-19T04:51:16.794Z,99.90
2019-05-19T04:53:47.126Z,99.90
2019-05-19T04:56:19.670Z,99.90
2019-05-19T04:58:49.441Z,99.90
2019-05-19T05:01:19.750Z,99.90
2019-05-19T05:03:50.289Z,99.90
2019-05-19T05:06:20.629Z,99.90
2019-05-19T05:08:50.962Z,99.90
2019-05-19T05:11:21.390Z,99.90
2019-05-19T05:13:51.709Z,99.90
2019-05-19T05:16:22.052Z,99.90
2019-05-19T05:18:52.604Z,99.90
2019-05-19T05:21:22.930Z,99.90
2019-05-19T05:23:53.253Z,99.90
2019-05-19T05:26:23.597Z,99.90
2019-05-19T05:28:53.922Z,99.90
2019-05-19T05:31:24.238Z,99.90
2019-05-19T05:33:54.623Z,99.90
2019-05-19T05:36:27.646Z,99.90
2019-05-19T05:38:56.989Z,99.90
2019-05-19T05:41:27.312Z,99.90
2019-05-19T05:43:57.637Z,99.90
2019-05-19T05:46:29.104Z,99.90
2019-05-19T05:48:59.401Z,99.90
2019-05-19T05:51:29.796Z,99.90
2019-05-19T05:54:00.189Z,99.90
2019-05-19T05:56:30.514Z,99.90
2019-05-19T05:59:00.906Z,99.90
2019-05-19T06:01:31.744Z,99.90
2019-05-19T06:04:09.200Z,99.90
2019-05-19T06:06:40.488Z,99.90
2019-05-19T06:09:10.819Z,99.90
2019-05-19T06:11:41.209Z,99.90
2019-05-19T06:14:12.703Z,99.90
2019-05-19T06:16:45.057Z,99.90
2019-05-19T06:19:15.360Z,99.90
2019-05-19T06:21:45.665Z,99.90
2019-05-19T06:24:16.166Z,99.90
2019-05-19T06:26:46.477Z,99.90
2019-05-19T06:29:16.821Z,99.90
2019-05-19T06:31:51.181Z,99.90
2019-05-19T06:34:22.317Z,99.90
2019-05-19T06:36:55.078Z,99.90
2019-05-19T06:39:24.513Z,99.90
2019-05-19T06:41:54.830Z,99.90
2019-05-19T06:44:25.321Z,99.90
2019-05-19T06:46:55.640Z,99.90
2019-05-19T06:49:26.022Z,99.90
2019-05-19T06:51:56.338Z,99.90
2019-05-19T06:54:26.698Z,99.90
2019-05-19T06:56:57.841Z,99.90
2019-05-19T06:59:28.291Z,99.90
2019-05-19T07:01:58.613Z,99.90
2019-05-19T07:04:28.997Z,99.70
2019-05-19T07:06:59.607Z,98.80
2019-05-19T07:09:30.036Z,98.10
2019-05-19T07:12:00.408Z,98.50
2019-05-19T07:14:31.917Z,98.90
2019-05-19T07:17:02.322Z,98.70
2019-05-19T07:19:32.642Z,98.40
2019-05-19T07:22:02.989Z,97.90
2019-05-19T07:24:33.326Z,97.00
2019-05-19T07:27:03.646Z,97.40
2019-05-19T07:29:33.986Z,96.40
2019-05-19T07:32:04.307Z,95.60
2019-05-19T07:34:34.708Z,95.60
2019-05-19T07:37:05.029Z,95.40
2019-05-19T07:39:35.382Z,95.50
2019-05-19T07:42:05.739Z,95.80
2019-05-19T07:44:36.243Z,95.80
2019-05-19T07:47:06.670Z,95.60
2019-05-19T07:49:37.082Z,95.00
2019-05-19T07:52:07.373Z,94.80
2019-05-19T07:54:38.089Z,94.40
2019-05-19T07:57:08.483Z,94.60
2019-05-19T07:59:39.434Z,94.30
2019-05-19T08:02:09.754Z,94.20
2019-05-19T08:04:40.137Z,94.60
2019-05-19T08:07:10.489Z,94.60
2019-05-19T08:09:41.342Z,94.50
2019-05-19T08:12:11.662Z,94.40
2019-05-19T08:14:42.006Z,93.20
2019-05-19T08:17:12.359Z,92.50
2019-05-19T08:19:42.823Z,93.30
2019-05-19T08:22:13.248Z,92.70
2019-05-19T08:24:43.571Z,92.30
2019-05-19T08:27:13.889Z,92.50
2019-05-19T08:29:44.226Z,93.30
2019-05-19T08:32:14.575Z,92.80
2019-05-19T08:34:44.996Z,92.30
2019-05-19T08:37:15.457Z,92.20
2019-05-19T08:39:46.282Z,92.60
2019-05-19T08:42:19.114Z,92.20
2019-05-19T08:44:49.554Z,92.20
2019-05-19T08:47:20.115Z,90.80
2019-05-19T08:49:51.011Z,90.60
2019-05-19T08:52:21.588Z,90.00
2019-05-19T08:54:52.173Z,88.60
2019-05-19T08:57:22.582Z,87.40
2019-05-19T08:59:54.197Z,84.90
2019-05-19T09:02:24.613Z,83.00
2019-05-19T09:04:54.993Z,84.20
2019-05-19T09:07:25.388Z,84.20
2019-05-19T09:09:56.762Z,81.80
2019-05-19T09:12:27.088Z,80.50
2019-05-19T09:14:57.557Z,80.10
2019-05-19T09:17:27.974Z,79.20
2019-05-19T09:19:58.341Z,81.20
2019-05-19T09:22:28.709Z,80.40
2019-05-19T09:24:59.077Z,79.70
2019-05-19T09:27:29.510Z,80.00
2019-05-19T09:29:59.857Z,79.20
2019-05-19T09:32:30.181Z,80.20
2019-05-19T09:35:00.555Z,79.90
2019-05-19T09:37:30.899Z,78.70
2019-05-19T09:40:01.228Z,77.70
2019-05-19T09:42:31.636Z,77.20
2019-05-19T09:45:02.005Z,75.70
2019-05-19T09:47:32.633Z,74.20
2019-05-19T09:50:03.229Z,73.40
2019-05-19T09:52:33.603Z,75.80
2019-05-19T09:55:04.306Z,75.60
2019-05-19T09:57:34.797Z,75.80
2019-05-19T10:00:06.364Z,73.80
2019-05-19T10:02:37.520Z,73.40
2019-05-19T10:05:08.024Z,70.50
2019-05-19T10:07:38.893Z,69.50
2019-05-19T10:10:17.813Z,69.30
2019-05-19T10:12:48.559Z,70.00
2019-05-19T10:15:19.145Z,70.60
2019-05-19T10:17:49.665Z,68.50
2019-05-19T10:20:20.369Z,70.20
2019-05-19T10:22:51.152Z,66.60
2019-05-19T10:25:23.073Z,68.60
2019-05-19T10:27:57.472Z,69.80
2019-05-19T10:30:27.481Z,66.30
2019-05-19T10:32:58.838Z,66.70
2019-05-19T10:35:29.212Z,67.60
2019-05-19T10:38:00.237Z,67.00
2019-05-19T10:40:30.533Z,66.50
2019-05-19T10:43:02.595Z,65.20
2019-05-19T10:45:32.989Z,65.80
2019-05-19T10:48:03.442Z,65.40
2019-05-19T10:50:33.787Z,64.30
2019-05-19T10:53:04.094Z,65.20
2019-05-19T10:55:36.849Z,63.70
2019-05-19T10:58:05.914Z,63.00
2019-05-19T11:00:36.273Z,62.90
2019-05-19T11:03:06.794Z,62.60
2019-05-19T11:05:37.156Z,62.50
2019-05-19T11:08:07.666Z,62.20
2019-05-19T11:10:38.456Z,62.90
2019-05-19T11:13:08.899Z,63.20
2019-05-19T11:15:39.658Z,64.20
2019-05-19T11:18:10.031Z,61.50
2019-05-19T11:20:40.822Z,63.20
2019-05-19T11:23:11.240Z,63.20
2019-05-19T11:25:50.987Z,61.80
2019-05-19T11:28:13.589Z,60.40
2019-05-19T11:30:44.004Z,59.50
2019-05-19T11:33:14.365Z,59.50
2019-05-19T11:35:44.790Z,59.90
2019-05-19T11:38:15.094Z,58.20
2019-05-19T11:40:45.546Z,59.00
2019-05-19T11:43:15.889Z,60.00
2019-05-19T11:45:46.271Z,58.10
2019-05-19T11:48:16.565Z,58.80
2019-05-19T11:50:47.027Z,58.40
2019-05-19T11:53:17.468Z,57.60
2019-05-19T11:55:47.774Z,58.00
2019-05-19T11:58:18.107Z,58.10
2019-05-19T12:00:48.569Z,56.90
2019-05-19T12:03:18.990Z,56.20
2019-05-19T12:05:49.403Z,55.60
2019-05-19T12:08:19.763Z,55.30
2019-05-19T12:10:50.084Z,54.50
2019-05-19T12:13:20.490Z,55.80
2019-05-19T12:15:50.905Z,55.70
2019-05-19T12:18:21.341Z,54.40
2019-05-19T12:20:52.744Z,54.90
2019-05-19T12:23:24.544Z,54.40
2019-05-19T12:25:55.460Z,54.00
2019-05-19T12:28:26.223Z,52.50
2019-05-19T12:30:56.566Z,51.20
2019-05-19T12:33:27.974Z,52.10
2019-05-19T12:35:58.329Z,50.50
2019-05-19T12:38:28.625Z,50.40
2019-05-19T12:40:59.246Z,51.70
2019-05-19T12:43:30.808Z,51.70
2019-05-19T12:46:01.485Z,51.60
2019-05-19T12:48:31.929Z,52.00
2019-05-19T12:51:08.678Z,50.70
2019-05-19T12:53:39.223Z,49.90
2019-05-19T12:56:09.620Z,49.70
2019-05-19T12:58:40.335Z,50.30
2019-05-19T13:01:10.813Z,51.90
2019-05-19T13:03:41.391Z,50.80
2019-05-19T13:06:11.801Z,50.90
2019-05-19T13:08:42.402Z,50.20
2019-05-19T13:11:12.834Z,48.80
2019-05-19T13:13:43.200Z,49.70
2019-05-19T13:16:13.535Z,49.70
2019-05-19T13:18:43.876Z,50.30
2019-05-19T13:21:14.241Z,49.70
2019-05-19T13:23:44.619Z,48.50
2019-05-19T13:26:15.049Z,48.80
2019-05-19T13:28:45.662Z,49.10
2019-05-19T13:31:16.080Z,49.30
2019-05-19T13:33:46.641Z,48.10
2019-05-19T13:36:17.307Z,47.40
2019-05-19T13:38:47.758Z,47.00
2019-05-19T13:41:18.139Z,47.20
2019-05-19T13:43:50.362Z,46.80
2019-05-19T13:46:20.689Z,47.10
2019-05-19T13:48:51.109Z,45.90
2019-05-19T13:51:21.863Z,47.20
2019-05-19T13:53:52.647Z,45.80
2019-05-19T13:56:23.502Z,47.20
2019-05-19T13:58:53.759Z,46.30
2019-05-19T14:01:28.439Z,46.10
2019-05-19T14:03:56.348Z,44.70
2019-05-19T14:06:26.837Z,43.30
2019-05-19T14:08:57.417Z,44.40
2019-05-19T14:11:27.795Z,43.00
2019-05-19T14:13:58.257Z,43.40
2019-05-19T14:16:28.784Z,44.70
2019-05-19T14:18:59.233Z,44.50
2019-05-19T14:21:29.709Z,44.70
2019-05-19T14:24:00.175Z,45.00
2019-05-19T14:26:30.651Z,45.90
2019-05-19T14:29:01.461Z,46.30
2019-05-19T14:31:31.840Z,45.90
2019-05-19T14:34:02.301Z,46.40
2019-05-19T14:36:32.813Z,45.60
2019-05-19T14:39:05.778Z,44.30
2019-05-19T14:41:43.473Z,44.80
2019-05-19T14:44:13.965Z,45.60
2019-05-19T14:46:44.332Z,46.40
2019-05-19T14:49:14.810Z,47.50
2019-05-19T14:51:45.275Z,46.70
2019-05-19T14:54:15.749Z,46.20
2019-05-19T14:56:46.163Z,46.40
2019-05-19T14:59:16.600Z,48.00
2019-05-19T15:01:47.072Z,46.50
2019-05-19T15:04:17.491Z,47.20
2019-05-19T15:06:47.851Z,46.50
2019-05-19T15:09:18.236Z,46.90
2019-05-19T15:11:48.619Z,46.70
2019-05-19T15:14:19.209Z,47.10
2019-05-19T15:16:50.142Z,47.70
2019-05-19T15:19:20.596Z,47.60
2019-05-19T15:21:50.944Z,48.50
2019-05-19T15:24:21.273Z,48.50
2019-05-19T15:26:51.853Z,48.30
2019-05-19T15:29:22.253Z,49.10
2019-05-19T15:31:52.568Z,48.60
2019-05-19T15:34:23.329Z,48.20
2019-05-19T15:36:53.662Z,48.80
2019-05-19T15:39:24.124Z,49.20
2019-05-19T15:41:57.550Z,49.80
2019-05-19T15:44:29.157Z,49.90
2019-05-19T15:46:59.470Z,50.10
2019-05-19T15:49:29.789Z,50.40
2019-05-19T15:52:03.632Z,50.40
2019-05-19T15:54:32.315Z,49.40
2019-05-19T15:57:02.682Z,49.80
2019-05-19T15:59:33.630Z,50.20
2019-05-19T16:02:04.034Z,51.00
2019-05-19T16:04:35.130Z,51.30
2019-05-19T16:07:05.463Z,51.50
2019-05-19T16:09:35.874Z,51.10
2019-05-19T16:12:06.183Z,50.20
2019-05-19T16:14:36.536Z,51.80
2019-05-19T16:17:06.832Z,53.60
2019-05-19T16:19:39.708Z,54.50
2019-05-19T16:22:09.237Z,55.90
2019-05-19T16:24:41.338Z,56.70
2019-05-19T16:27:12.952Z,57.40
2019-05-19T16:29:43.550Z,57.50
2019-05-19T16:32:13.941Z,56.70
2019-05-19T16:34:44.614Z,56.50
2019-05-19T16:37:14.957Z,57.10
2019-05-19T16:39:45.598Z,57.20
2019-05-19T16:42:16.276Z,58.10
2019-05-19T16:44:47.821Z,58.30
2019-05-19T16:47:18.172Z,58.90
2019-05-19T16:49:48.569Z,59.10
2019-05-19T16:52:20.011Z,59.20
2019-05-19T16:55:09.552Z,59.50
2019-05-19T16:57:40.498Z,59.70
2019-05-19T17:00:11.193Z,59.40
2019-05-19T17:02:41.518Z,59.50
2019-05-19T17:05:13.705Z,59.60
2019-05-19T17:07:44.347Z,60.00
2019-05-19T17:10:14.853Z,59.90
2019-05-19T17:12:46.293Z,60.00
2019-05-19T17:15:17.610Z,59.80
2019-05-19T17:17:47.928Z,60.00
2019-05-19T17:20:18.626Z,59.60
2019-05-19T17:22:49.203Z,61.00
2019-05-19T17:25:19.935Z,61.10
2019-05-19T17:27:50.247Z,60.50
2019-05-19T17:30:21.004Z,60.10
2019-05-19T17:32:51.317Z,60.10
2019-05-19T17:35:21.636Z,59.70
2019-05-19T17:37:51.948Z,60.50
2019-05-19T17:40:22.246Z,61.40
2019-05-19T17:42:52.573Z,60.90
2019-05-19T17:45:23.097Z,61.20
2019-05-19T17:47:57.644Z,60.70
2019-05-19T17:50:33.549Z,61.10
2019-05-19T17:53:04.427Z,61.40
2019-05-19T17:55:36.639Z,61.80
2019-05-19T17:58:06.667Z,62.60
2019-05-19T18:00:41.013Z,63.10
2019-05-19T18:03:11.610Z,63.20
2019-05-19T18:05:42.141Z,63.50
2019-05-19T18:08:12.570Z,64.00
2019-05-19T18:10:42.864Z,64.00
2019-05-19T18:13:13.154Z,64.80
2019-05-19T18:15:43.615Z,66.00
2019-05-19T18:18:13.938Z,66.60
2019-05-19T18:20:46.955Z,66.20
2019-05-19T18:23:16.342Z,66.40
2019-05-19T18:25:46.550Z,66.90
2019-05-19T18:28:16.877Z,67.40
2019-05-19T18:30:47.276Z,67.70
2019-05-19T18:33:17.644Z,68.20
2019-05-19T18:35:48.049Z,69.30
2019-05-19T18:38:19.993Z,70.20
2019-05-19T18:41:02.233Z,69.80
2019-05-19T18:43:32.987Z,70.50
2019-05-19T18:46:03.410Z,70.90
2019-05-19T18:48:34.485Z,71.00
2019-05-19T18:51:05.089Z,71.60
2019-05-19T18:53:35.488Z,71.70
2019-05-19T18:56:05.910Z,72.10
2019-05-19T18:58:36.324Z,72.90
2019-05-19T19:01:06.661Z,73.40
2019-05-19T19:03:38.420Z,74.20
2019-05-19T19:06:08.708Z,75.80
2019-05-19T19:08:39.137Z,77.70
2019-05-19T19:11:09.523Z,79.10
2019-05-19T19:13:40.042Z,80.40
2019-05-19T19:16:10.355Z,81.30
2019-05-19T19:18:41.002Z,82.40
2019-05-19T19:21:14.394Z,82.90
2019-05-19T19:23:44.851Z,84.00
2019-05-19T19:26:15.157Z,84.00
2019-05-19T19:28:45.461Z,84.20
2019-05-19T19:31:15.882Z,83.30
2019-05-19T19:33:46.193Z,83.70
2019-05-19T19:36:16.498Z,83.00
2019-05-19T19:38:46.895Z,83.00
2019-05-19T19:41:17.603Z,82.80
2019-05-19T19:43:49.394Z,82.50
2019-05-19T19:46:21.303Z,82.60
2019-05-19T19:48:52.045Z,82.80
2019-05-19T19:51:23.440Z,83.00
2019-05-19T19:53:53.894Z,82.80
2019-05-19T19:56:24.294Z,82.60
2019-05-19T19:58:54.584Z,82.20
2019-05-19T20:01:24.931Z,81.80
2019-05-19T20:03:55.344Z,83.20
2019-05-19T20:06:25.674Z,82.00
2019-05-19T20:08:55.995Z,82.30
2019-05-19T20:11:26.382Z,82.60
2019-05-19T20:13:56.685Z,82.60
2019-05-19T20:16:27.026Z,82.80
2019-05-19T20:18:57.351Z,82.70
2019-05-19T20:21:27.723Z,81.80
2019-05-19T20:23:58.262Z,81.00
2019-05-19T20:26:28.576Z,80.50
2019-05-19T20:28:58.965Z,80.50
2019-05-19T20:31:31.430Z,79.80
2019-05-19T20:34:01.401Z,79.60
2019-05-19T20:36:33.211Z,78.80
2019-05-19T20:39:07.161Z,78.30
2019-05-19T20:41:38.090Z,78.10
2019-05-19T20:44:08.420Z,78.20
2019-05-19T20:46:39.181Z,77.40
2019-05-19T20:49:09.482Z,77.80
2019-05-19T20:51:40.235Z,77.50
2019-05-19T20:54:10.562Z,77.50
2019-05-19T20:56:40.929Z,77.00
2019-05-19T20:59:11.237Z,77.30
2019-05-19T21:01:41.623Z,77.10
2019-05-19T21:04:11.951Z,77.00
2019-05-19T21:06:42.273Z,77.20
2019-05-19T21:09:13.196Z,76.90
2019-05-19T21:11:45.025Z,76.60
2019-05-19T21:14:15.297Z,77.50
2019-05-19T21:16:45.838Z,76.40
2019-05-19T21:19:16.201Z,76.50
2019-05-19T21:21:46.509Z,75.90
2019-05-19T21:24:17.120Z,75.80
2019-05-19T21:26:49.006Z,75.50
2019-05-19T21:29:20.795Z,75.40
2019-05-19T21:31:53.898Z,75.10
2019-05-19T21:34:25.727Z,74.90
2019-05-19T21:36:58.551Z,74.50
2019-05-19T21:39:28.911Z,74.50
2019-05-19T21:41:59.222Z,74.30
2019-05-19T21:44:29.578Z,73.90
2019-05-19T21:47:00.983Z,74.10
2019-05-19T21:49:31.331Z,73.80
2019-05-19T21:52:03.691Z,73.70
2019-05-19T21:54:33.857Z,73.50
2019-05-19T21:57:04.212Z,73.60
2019-05-19T21:59:37.118Z,73.30
2019-05-19T22:02:07.590Z,73.20
2019-05-19T22:04:38.226Z,72.60
2019-05-19T22:07:13.580Z,72.90
2019-05-19T22:09:43.937Z,72.60
2019-05-19T22:12:14.266Z,72.80
2019-05-19T22:14:44.621Z,73.00
2019-05-19T22:17:15.007Z,73.20
2019-05-19T22:19:45.379Z,73.20
2019-05-19T22:22:16.275Z,73.70
2019-05-19T22:24:46.530Z,73.00
2019-05-19T22:27:16.981Z,72.90
2019-05-19T22:29:47.364Z,72.70
2019-05-19T22:32:17.796Z,72.90
2019-05-19T22:34:48.257Z,73.10
2019-05-19T22:37:18.926Z,73.10
2019-05-19T22:39:49.301Z,73.40
2019-05-19T22:42:19.702Z,73.50
2019-05-19T22:44:50.001Z,73.50
2019-05-19T22:47:20.434Z,73.50
2019-05-19T22:49:50.809Z,74.10
2019-05-19T22:52:21.205Z,74.50
2019-05-19T22:54:52.857Z,74.60
2019-05-19T22:57:25.098Z,75.10
2019-05-19T22:59:56.092Z,75.60
2019-05-19T23:02:26.914Z,75.80
2019-05-19T23:04:58.530Z,76.20
2019-05-19T23:07:31.236Z,76.40
2019-05-19T23:10:02.824Z,76.80
2019-05-19T23:12:33.733Z,77.30
2019-05-19T23:15:04.215Z,77.40
2019-05-19T23:17:34.513Z,77.60
2019-05-19T23:20:05.846Z,78.00
2019-05-19T23:22:37.895Z,78.40
2019-05-19T23:25:09.171Z,78.70
2019-05-19T23:27:49.477Z,79.20
2019-05-19T23:30:21.197Z,79.10
2019-05-19T23:32:51.561Z,79.60
2019-05-19T23:35:22.901Z,79.90
2019-05-19T23:37:53.836Z,80.30
2019-05-19T23:40:24.807Z,80.30
2019-05-19T23:42:56.280Z,80.70
2019-05-19T23:45:27.416Z,81.10
2019-05-19T23:47:59.506Z,81.40
2019-05-19T23:50:30.201Z,81.70
2019-05-19T23:53:00.147Z,82.30
2019-05-19T23:55:31.681Z,82.30
2019-05-19T23:58:03.554Z,82.80
